Terminal Aerodrome Forecast
Issued by NWS

Home | Current Version | Previous Version | Graphics & Text | Print | Product List | Glossary On
Versions: 1 2 3 4 5 6 7 8 9 10 11 12 13 14 15 16 17 18 19
000
FTUS43 KMPX 251100 RRA
TAFRWF
TAF
KRWF 251145Z 2512/2612 18007KT P6SM SCT015 OVC070
     FM251600 26004KT P6SM SCT015 BKN030
     FM251900 35005KT P6SM SCT009 OVC015 PROB30 2521/2602 5SM -SN
      BKN009 OVC020
     FM260500 35007KT 6SM -SN OVC008=

USA.gov is the U.S. government's official web portal to all federal, state and local government web resources and services.